createdAt,value
2018-08-22T00:00:49.154Z,17.97
2018-08-22T00:03:17.487Z,17.95
2018-08-22T00:05:45.815Z,17.92
2018-08-22T00:08:14.228Z,17.91
2018-08-22T00:10:42.543Z,17.90
2018-08-22T00:13:10.880Z,17.90
2018-08-22T00:15:39.232Z,17.87
2018-08-22T00:18:07.563Z,17.88
2018-08-22T00:20:35.905Z,17.86
2018-08-22T00:23:04.420Z,17.84
2018-08-22T00:25:32.746Z,17.81
2018-08-22T00:28:01.074Z,17.78
2018-08-22T00:30:29.418Z,17.74
2018-08-22T00:32:57.779Z,17.71
2018-08-22T00:35:26.155Z,17.64
2018-08-22T00:37:54.510Z,17.60
2018-08-22T00:40:22.844Z,17.60
2018-08-22T00:42:51.194Z,17.58
2018-08-22T00:45:19.538Z,17.60
2018-08-22T00:47:47.889Z,17.56
2018-08-22T00:50:16.229Z,17.52
2018-08-22T00:52:45.836Z,17.51
2018-08-22T00:55:14.187Z,17.50
2018-08-22T00:57:42.544Z,17.50
2018-08-22T01:00:11.074Z,17.51
2018-08-22T01:02:39.427Z,17.48
2018-08-22T01:05:07.766Z,17.48
2018-08-22T01:07:36.143Z,17.50
2018-08-22T01:10:04.974Z,17.49
2018-08-22T01:12:33.311Z,17.48
2018-08-22T01:15:01.659Z,17.44
2018-08-22T01:17:29.974Z,17.41
2018-08-22T01:19:58.313Z,17.34
2018-08-22T01:22:26.660Z,17.32
2018-08-22T01:24:55.045Z,17.30
2018-08-22T01:27:23.965Z,17.31
2018-08-22T01:29:54.407Z,17.28
2018-08-22T01:32:23.181Z,17.24
2018-08-22T01:34:52.895Z,17.18
2018-08-22T01:37:21.207Z,17.16
2018-08-22T01:39:49.648Z,17.14
2018-08-22T01:42:18.639Z,17.17
2018-08-22T01:44:47.329Z,17.16
2018-08-22T01:47:16.011Z,17.16
2018-08-22T01:49:44.361Z,17.16
2018-08-22T01:52:12.697Z,17.11
2018-08-22T01:54:41.047Z,17.12
2018-08-22T01:57:09.396Z,17.09
2018-08-22T01:59:37.735Z,17.01
2018-08-22T02:02:06.079Z,17.00
2018-08-22T02:04:34.431Z,16.95
2018-08-22T02:07:02.776Z,16.99
2018-08-22T02:09:31.116Z,16.92
2018-08-22T02:11:59.466Z,16.92
2018-08-22T02:14:27.801Z,16.91
2018-08-22T02:16:56.163Z,16.89
2018-08-22T02:19:24.532Z,16.83
2018-08-22T02:21:52.856Z,16.82
2018-08-22T02:24:21.232Z,16.79
2018-08-22T02:26:49.557Z,16.76
2018-08-22T02:29:17.874Z,16.78
2018-08-22T02:31:46.257Z,16.71
2018-08-22T02:34:14.619Z,16.70
2018-08-22T02:36:42.981Z,16.64
2018-08-22T02:39:11.331Z,16.64
2018-08-22T02:41:39.681Z,16.59
2018-08-22T02:44:08.033Z,16.57
2018-08-22T02:46:36.412Z,16.56
2018-08-22T02:49:04.749Z,16.54
2018-08-22T02:51:33.124Z,16.46
2018-08-22T02:54:01.462Z,16.42
2018-08-22T02:56:29.808Z,16.43
2018-08-22T02:58:58.149Z,16.37
2018-08-22T03:01:26.491Z,16.38
2018-08-22T03:03:54.804Z,16.36
2018-08-22T03:06:23.148Z,16.35
2018-08-22T03:08:51.461Z,16.35
2018-08-22T03:11:20.095Z,16.28
2018-08-22T03:13:48.458Z,16.24
2018-08-22T03:16:16.790Z,16.29
2018-08-22T03:18:45.134Z,16.28
2018-08-22T03:21:14.018Z,16.24
2018-08-22T03:23:42.377Z,16.26
2018-08-22T03:26:10.738Z,16.19
2018-08-22T03:28:39.411Z,16.18
2018-08-22T03:31:07.745Z,16.13
2018-08-22T03:33:36.123Z,16.15
2018-08-22T03:36:04.466Z,16.14
2018-08-22T03:38:33.458Z,16.10
2018-08-22T03:41:02.148Z,16.15
2018-08-22T03:43:30.476Z,16.11
2018-08-22T03:45:58.814Z,16.03
2018-08-22T03:48:27.148Z,16.00
2018-08-22T03:50:55.483Z,16.02
2018-08-22T03:53:23.817Z,15.96
2018-08-22T03:55:52.146Z,15.98
2018-08-22T03:58:20.476Z,15.95
2018-08-22T04:00:48.808Z,15.96
2018-08-22T04:03:17.282Z,15.90
2018-08-22T04:05:45.599Z,15.88
2018-08-22T04:08:13.971Z,15.84
2018-08-22T04:10:44.553Z,15.89
2018-08-22T04:13:12.957Z,15.90
2018-08-22T04:15:41.807Z,15.95
2018-08-22T04:18:10.121Z,15.97
2018-08-22T04:20:38.435Z,15.94
2018-08-22T04:23:06.768Z,15.95
2018-08-22T04:25:35.155Z,15.90
2018-08-22T04:28:03.484Z,15.84
2018-08-22T04:30:31.787Z,15.86
2018-08-22T04:33:00.109Z,15.89
2018-08-22T04:35:28.442Z,15.89
2018-08-22T04:37:56.753Z,15.87
2018-08-22T04:40:25.100Z,15.86
2018-08-22T04:42:53.481Z,15.87
2018-08-22T04:45:21.889Z,15.84
2018-08-22T04:47:50.234Z,15.88
2018-08-22T04:50:18.591Z,15.89
2018-08-22T04:52:46.914Z,15.83
2018-08-22T04:55:15.246Z,15.89
2018-08-22T04:57:43.571Z,15.89
2018-08-22T05:00:11.884Z,15.93
2018-08-22T05:02:40.430Z,15.96
2018-08-22T05:05:08.911Z,15.97
2018-08-22T05:07:37.268Z,15.97
2018-08-22T05:10:06.128Z,16.01
2018-08-22T05:12:34.467Z,16.03
2018-08-22T05:15:02.782Z,15.99
2018-08-22T05:17:31.115Z,16.04
2018-08-22T05:19:59.447Z,16.10
2018-08-22T05:22:27.767Z,16.12
2018-08-22T05:24:56.123Z,16.21
2018-08-22T05:27:24.460Z,16.25
2018-08-22T05:29:52.779Z,16.33
2018-08-22T05:32:21.181Z,16.42
2018-08-22T05:34:49.605Z,16.48
2018-08-22T05:37:17.951Z,16.57
2018-08-22T05:39:46.337Z,16.69
2018-08-22T05:42:14.679Z,16.75
2018-08-22T05:44:43.026Z,16.78
2018-08-22T05:47:11.378Z,16.84
2018-08-22T05:49:39.788Z,16.89
2018-08-22T05:52:08.197Z,17.01
2018-08-22T05:54:36.570Z,17.16
2018-08-22T05:57:04.912Z,17.28
2018-08-22T05:59:33.267Z,17.35
2018-08-22T06:02:01.647Z,17.49
2018-08-22T06:04:29.986Z,17.59
2018-08-22T06:06:58.331Z,17.80
2018-08-22T06:09:26.727Z,17.94
2018-08-22T06:11:55.067Z,17.97
2018-08-22T06:14:23.427Z,18.09
2018-08-22T06:16:51.781Z,18.18
2018-08-22T06:19:20.129Z,18.28
2018-08-22T06:21:48.474Z,18.42
2018-08-22T06:24:16.825Z,18.61
2018-08-22T06:26:45.190Z,18.68
2018-08-22T06:29:13.514Z,18.84
2018-08-22T06:31:41.893Z,18.90
2018-08-22T06:34:10.243Z,19.11
2018-08-22T06:36:38.590Z,19.21
2018-08-22T06:39:09.156Z,19.35
2018-08-22T06:41:37.646Z,19.36
2018-08-22T06:44:05.985Z,19.65
2018-08-22T06:46:34.348Z,19.84
2018-08-22T06:49:02.693Z,19.94
2018-08-22T06:51:31.072Z,20.21
2018-08-22T06:53:59.385Z,20.58
2018-08-22T06:56:27.715Z,20.80
2018-08-22T06:58:56.018Z,21.21
2018-08-22T07:01:24.348Z,21.72
2018-08-22T07:03:52.665Z,21.83
2018-08-22T07:06:21.009Z,22.34
2018-08-22T07:08:49.344Z,22.69
2018-08-22T07:11:17.695Z,22.69
2018-08-22T07:13:46.064Z,23.09
2018-08-22T07:16:14.520Z,23.04
2018-08-22T07:18:42.888Z,23.71
2018-08-22T07:21:11.225Z,24.04
2018-08-22T07:23:39.565Z,24.08
2018-08-22T07:26:07.929Z,24.23
2018-08-22T07:28:36.284Z,24.39
2018-08-22T07:31:05.012Z,24.85
2018-08-22T07:33:33.379Z,25.02
2018-08-22T07:36:02.588Z,25.55
2018-08-22T07:38:30.930Z,25.61
2018-08-22T07:40:59.370Z,25.77
2018-08-22T07:43:27.716Z,26.02
2018-08-22T07:45:56.502Z,26.72
2018-08-22T07:48:24.902Z,27.12
2018-08-22T07:50:53.225Z,27.31
2018-08-22T07:53:21.577Z,27.21
2018-08-22T07:55:50.805Z,27.20
2018-08-22T07:58:19.184Z,27.67
2018-08-22T08:00:47.564Z,28.00
2018-08-22T08:03:15.921Z,28.31
2018-08-22T08:05:44.319Z,28.42
2018-08-22T08:08:12.715Z,28.24
2018-08-22T08:10:41.088Z,28.63
2018-08-22T08:13:13.859Z,28.72
2018-08-22T08:15:42.680Z,29.12
2018-08-22T08:18:11.060Z,30.21
2018-08-22T08:20:39.449Z,30.62
2018-08-22T08:23:08.369Z,31.35
2018-08-22T08:25:36.782Z,32.17
2018-08-22T08:28:05.607Z,32.99
2018-08-22T08:30:34.032Z,32.86
2018-08-22T08:33:02.702Z,32.89
2018-08-22T08:35:31.220Z,33.00
2018-08-22T08:37:59.570Z,33.77
2018-08-22T08:40:28.912Z,34.60
2018-08-22T08:42:58.200Z,34.71
2018-08-22T08:45:26.593Z,35.55
2018-08-22T08:47:55.336Z,35.85
2018-08-22T08:50:24.393Z,36.12
2018-08-22T08:52:52.844Z,35.60
2018-08-22T08:55:21.328Z,36.10
2018-08-22T08:57:49.740Z,35.91
2018-08-22T09:00:18.073Z,37.48
2018-08-22T09:02:47.427Z,37.88
2018-08-22T09:05:15.803Z,37.60
2018-08-22T09:07:44.133Z,37.84
2018-08-22T09:10:12.462Z,36.93
2018-08-22T09:12:40.800Z,38.73
2018-08-22T09:15:09.170Z,37.27
2018-08-22T09:17:37.564Z,37.19
2018-08-22T09:20:07.369Z,35.72
2018-08-22T09:22:35.767Z,36.71
2018-08-22T09:25:04.118Z,37.30
2018-08-22T09:27:32.498Z,36.93
2018-08-22T09:30:00.838Z,36.78
2018-08-22T09:32:29.240Z,39.02
2018-08-22T09:34:57.679Z,38.91
2018-08-22T09:37:26.011Z,39.12
2018-08-22T09:39:54.366Z,38.30
2018-08-22T09:42:22.730Z,38.31
2018-08-22T09:44:51.082Z,38.60
2018-08-22T09:47:19.396Z,38.69
2018-08-22T09:49:47.791Z,38.96
2018-08-22T09:52:16.083Z,40.05
2018-08-22T09:54:56.545Z,40.71
2018-08-22T09:57:26.107Z,38.49
2018-08-22T09:59:54.437Z,38.98
2018-08-22T10:02:22.986Z,40.01
2018-08-22T10:04:51.685Z,40.49
2018-08-22T10:07:20.037Z,39.77
2018-08-22T10:09:48.486Z,39.16
2018-08-22T10:12:16.851Z,41.11
2018-08-22T10:14:45.247Z,40.41
2018-08-22T10:17:13.632Z,39.97
2018-08-22T10:19:42.183Z,39.52
2018-08-22T10:22:10.533Z,39.53
2018-08-22T10:24:38.884Z,39.35
2018-08-22T10:27:07.236Z,39.44
2018-08-22T10:29:35.577Z,39.95
2018-08-22T10:32:03.919Z,40.69
2018-08-22T10:34:32.256Z,40.28
2018-08-22T10:37:00.580Z,40.08
2018-08-22T10:39:28.953Z,40.76
2018-08-22T10:41:57.261Z,40.80
2018-08-22T10:44:25.653Z,39.92
2018-08-22T10:46:54.449Z,38.90
2018-08-22T10:49:22.792Z,40.37
2018-08-22T10:51:51.160Z,38.86
2018-08-22T10:54:19.489Z,39.32
2018-08-22T10:56:47.839Z,36.93
2018-08-22T10:59:16.730Z,34.61
2018-08-22T11:01:45.085Z,35.18
2018-08-22T11:04:13.427Z,35.05
2018-08-22T11:06:41.790Z,34.17
2018-08-22T11:09:11.180Z,33.59
2018-08-22T11:11:39.526Z,33.65
2018-08-22T11:14:08.234Z,32.30
2018-08-22T11:16:37.561Z,32.28
2018-08-22T11:19:06.416Z,31.27
2018-08-22T11:21:46.047Z,30.35
2018-08-22T11:24:25.836Z,29.51
2018-08-22T11:27:05.436Z,29.63
2018-08-22T11:29:45.241Z,29.56
2018-08-22T11:32:25.029Z,29.18
2018-08-22T11:34:53.464Z,29.15
2018-08-22T11:37:21.858Z,28.63
2018-08-22T11:39:51.204Z,28.83
2018-08-22T11:42:20.005Z,28.59
2018-08-22T11:44:48.358Z,28.37
2018-08-22T11:47:16.683Z,27.98
2018-08-22T11:49:45.045Z,27.53
2018-08-22T11:52:13.389Z,27.53
2018-08-22T11:54:41.727Z,27.56
2018-08-22T11:57:10.176Z,27.54
2018-08-22T11:59:39.016Z,27.44
2018-08-22T12:02:07.367Z,27.50
2018-08-22T12:04:35.807Z,27.47
2018-08-22T12:07:04.146Z,27.40
2018-08-22T12:09:32.464Z,27.35
2018-08-22T12:12:00.820Z,27.35
2018-08-22T12:14:29.154Z,26.94
2018-08-22T12:16:57.495Z,27.15
2018-08-22T12:19:25.841Z,27.19
2018-08-22T12:21:54.171Z,27.17
2018-08-22T12:24:22.494Z,27.14
2018-08-22T12:26:50.829Z,27.07
2018-08-22T12:29:19.152Z,26.92
2018-08-22T12:31:47.488Z,26.79
2018-08-22T12:34:15.940Z,26.90
2018-08-22T12:36:44.292Z,26.77
2018-08-22T12:39:12.631Z,26.89
2018-08-22T12:41:40.981Z,26.86
2018-08-22T12:44:09.327Z,26.83
2018-08-22T12:46:37.688Z,26.88
2018-08-22T12:49:06.041Z,26.90
2018-08-22T12:51:34.415Z,26.93
2018-08-22T12:54:02.780Z,26.79
2018-08-22T12:56:31.171Z,26.78
2018-08-22T12:58:59.537Z,26.87
2018-08-22T13:01:27.860Z,26.79
2018-08-22T13:03:56.223Z,26.79
2018-08-22T13:06:24.538Z,26.87
2018-08-22T13:08:52.929Z,26.90
2018-08-22T13:11:21.285Z,26.91
2018-08-22T13:13:49.647Z,26.89
2018-08-22T13:16:18.018Z,26.92
2018-08-22T13:18:46.344Z,26.95
2018-08-22T13:21:14.875Z,26.84
2018-08-22T13:23:43.309Z,26.86
2018-08-22T13:26:11.634Z,26.89
2018-08-22T13:28:39.998Z,26.88
2018-08-22T13:31:08.343Z,26.94
2018-08-22T13:33:36.712Z,26.92
2018-08-22T13:36:05.115Z,26.93
2018-08-22T13:38:33.468Z,26.92
2018-08-22T13:41:01.804Z,26.92
2018-08-22T13:43:30.140Z,26.89
2018-08-22T13:45:58.577Z,26.86
2018-08-22T13:48:27.015Z,26.82
2018-08-22T13:50:55.437Z,26.85
2018-08-22T13:53:23.712Z,26.81
2018-08-22T13:55:52.127Z,26.78
2018-08-22T13:58:20.485Z,26.74
2018-08-22T14:00:48.836Z,26.74
2018-08-22T14:03:17.174Z,26.73
2018-08-22T14:05:45.543Z,26.70
2018-08-22T14:08:13.916Z,26.69
2018-08-22T14:10:42.258Z,26.69
2018-08-22T14:13:10.644Z,26.67
2018-08-22T14:15:39.011Z,26.66
2018-08-22T14:18:07.463Z,26.69
2018-08-22T14:20:35.893Z,26.66
2018-08-22T14:23:04.260Z,26.63
2018-08-22T14:25:32.595Z,26.62
2018-08-22T14:28:00.948Z,26.63
2018-08-22T14:30:29.285Z,26.60
2018-08-22T14:32:57.690Z,26.65
2018-08-22T14:35:26.049Z,26.60
2018-08-22T14:37:54.389Z,26.63
2018-08-22T14:40:22.735Z,26.60
2018-08-22T14:42:51.149Z,26.63
2018-08-22T14:45:20.848Z,26.70
2018-08-22T14:47:49.284Z,26.71
2018-08-22T14:50:17.659Z,26.67
2018-08-22T14:52:46.031Z,26.66
2018-08-22T14:55:14.366Z,26.62
2018-08-22T14:57:43.013Z,26.63
2018-08-22T15:00:11.373Z,26.60
2018-08-22T15:02:40.110Z,26.66
2018-08-22T15:05:09.368Z,26.65
2018-08-22T15:07:38.374Z,26.62
2018-08-22T15:10:06.834Z,26.74
2018-08-22T15:12:35.174Z,26.75
2018-08-22T15:15:03.531Z,26.65
2018-08-22T15:17:31.868Z,26.61
2018-08-22T15:20:00.236Z,26.59
2018-08-22T15:22:28.582Z,26.56
2018-08-22T15:24:57.028Z,26.55
2018-08-22T15:27:25.405Z,26.51
2018-08-22T15:29:53.769Z,26.49
2018-08-22T15:32:22.347Z,26.47
2018-08-22T15:34:57.727Z,26.46
2018-08-22T15:37:26.623Z,26.43
2018-08-22T15:39:54.968Z,26.42
2018-08-22T15:42:23.343Z,26.42
2018-08-22T15:44:51.744Z,26.47
2018-08-22T15:47:20.268Z,26.50
2018-08-22T15:49:48.566Z,26.40
2018-08-22T15:52:16.993Z,26.33
2018-08-22T15:55:01.309Z,26.32
2018-08-22T15:57:40.542Z,26.29
2018-08-22T16:00:08.943Z,26.28
2018-08-22T16:02:37.299Z,26.28
2018-08-22T16:05:06.562Z,26.31
2018-08-22T16:07:35.821Z,26.26
2018-08-22T16:10:05.031Z,26.30
2018-08-22T16:12:33.878Z,26.27
2018-08-22T16:15:02.288Z,26.23
2018-08-22T16:17:31.017Z,26.20
2018-08-22T16:19:59.382Z,26.16
2018-08-22T16:22:28.028Z,26.13
2018-08-22T16:24:57.175Z,26.14
2018-08-22T16:27:26.267Z,26.12
2018-08-22T16:29:54.780Z,26.05
2018-08-22T16:32:23.235Z,26.00
2018-08-22T16:34:51.617Z,26.01
2018-08-22T16:37:20.053Z,25.96
2018-08-22T16:39:49.058Z,25.94
2018-08-22T16:42:23.806Z,25.89
2018-08-22T16:44:52.128Z,25.87
2018-08-22T16:47:24.677Z,25.84
2018-08-22T16:49:53.031Z,25.79
2018-08-22T16:52:21.390Z,25.77
2018-08-22T16:54:59.111Z,25.73
2018-08-22T16:57:28.065Z,25.69
2018-08-22T16:59:56.413Z,25.67
2018-08-22T17:02:24.783Z,25.66
2018-08-22T17:04:53.136Z,25.64
2018-08-22T17:07:21.612Z,25.69
2018-08-22T17:09:50.572Z,25.71
2018-08-22T17:12:18.952Z,25.75
2018-08-22T17:14:47.419Z,25.66
2018-08-22T17:17:15.837Z,25.66
2018-08-22T17:19:44.175Z,25.61
2018-08-22T17:22:13.006Z,25.58
2018-08-22T17:24:41.393Z,25.56
2018-08-22T17:27:09.778Z,25.54
2018-08-22T17:29:38.162Z,25.50
2018-08-22T17:32:06.877Z,25.47
2018-08-22T17:34:35.383Z,25.44
2018-08-22T17:37:08.284Z,25.40
2018-08-22T17:39:36.636Z,25.34
2018-08-22T17:42:05.012Z,25.33
2018-08-22T17:44:33.353Z,25.28
2018-08-22T17:47:01.740Z,25.25
2018-08-22T17:49:30.099Z,25.19
2018-08-22T17:52:00.183Z,25.16
2018-08-22T17:54:28.681Z,25.11
2018-08-22T17:57:10.664Z,25.07
2018-08-22T17:59:39.541Z,25.04
2018-08-22T18:02:07.880Z,25.00
2018-08-22T18:04:59.910Z,24.93
2018-08-22T18:07:28.307Z,24.89
2018-08-22T18:09:56.684Z,24.83
2018-08-22T18:12:26.272Z,24.79
2018-08-22T18:14:57.568Z,24.75
2018-08-22T18:17:25.915Z,24.69
2018-08-22T18:19:54.249Z,24.62
2018-08-22T18:22:22.629Z,24.59
2018-08-22T18:24:56.407Z,24.52
2018-08-22T18:27:25.051Z,24.45
2018-08-22T18:29:53.405Z,24.41
2018-08-22T18:32:21.822Z,24.34
2018-08-22T18:35:01.635Z,24.28
2018-08-22T18:37:30.870Z,24.23
2018-08-22T18:40:08.510Z,24.19
2018-08-22T18:42:36.887Z,24.13
2018-08-22T18:45:05.983Z,24.08
2018-08-22T18:47:35.298Z,24.03
2018-08-22T18:50:03.980Z,23.98
2018-08-22T18:52:32.564Z,23.94
2018-08-22T18:55:01.676Z,23.86
2018-08-22T18:57:30.071Z,23.84
2018-08-22T18:59:58.472Z,23.79
2018-08-22T19:02:27.206Z,23.74
2018-08-22T19:05:01.429Z,23.70
2018-08-22T19:07:30.557Z,23.66
2018-08-22T19:09:58.970Z,23.61
2018-08-22T19:12:27.632Z,23.57
2018-08-22T19:14:55.962Z,23.51
2018-08-22T19:17:24.378Z,23.48
2018-08-22T19:19:52.723Z,23.43
2018-08-22T19:22:21.070Z,23.39
2018-08-22T19:25:03.683Z,23.35
2018-08-22T19:27:33.222Z,23.31
2018-08-22T19:30:01.923Z,23.26
2018-08-22T19:32:30.260Z,23.22
2018-08-22T19:34:58.638Z,23.16
2018-08-22T19:37:27.964Z,23.12
2018-08-22T19:40:02.692Z,23.08
2018-08-22T19:42:32.432Z,23.03
2018-08-22T19:45:00.990Z,22.99
2018-08-22T19:47:29.410Z,22.93
2018-08-22T19:49:58.963Z,22.88
2018-08-22T19:52:27.352Z,22.85
2018-08-22T19:54:55.886Z,22.81
2018-08-22T19:57:29.765Z,22.76
2018-08-22T19:59:58.345Z,22.72
2018-08-22T20:02:27.154Z,22.69
2018-08-22T20:04:56.756Z,22.65
2018-08-22T20:07:26.269Z,22.61
2018-08-22T20:09:56.040Z,22.56
2018-08-22T20:12:36.269Z,22.51
2018-08-22T20:15:06.026Z,22.48
2018-08-22T20:17:34.420Z,22.36
2018-08-22T20:20:03.062Z,22.36
2018-08-22T20:22:37.492Z,22.35
2018-08-22T20:25:06.975Z,22.27
2018-08-22T20:27:35.310Z,22.19
2018-08-22T20:30:11.962Z,22.15
2018-08-22T20:32:53.054Z,22.10
2018-08-22T20:35:26.807Z,22.05
2018-08-22T20:37:55.482Z,22.00
2018-08-22T20:40:23.841Z,21.97
2018-08-22T20:42:52.286Z,21.93
2018-08-22T20:45:25.900Z,21.88
2018-08-22T20:48:10.231Z,21.84
2018-08-22T20:50:40.043Z,21.80
2018-08-22T20:53:09.757Z,21.78
2018-08-22T20:55:38.171Z,21.74
2018-08-22T20:58:06.520Z,21.68
2018-08-22T21:00:35.848Z,21.66
2018-08-22T21:03:04.336Z,21.62
2018-08-22T21:05:32.776Z,21.56
2018-08-22T21:08:01.129Z,21.55
2018-08-22T21:10:29.493Z,21.54
2018-08-22T21:12:58.014Z,21.51
2018-08-22T21:15:26.371Z,21.50
2018-08-22T21:17:54.746Z,21.43
2018-08-22T21:20:24.901Z,21.43
2018-08-22T21:22:54.309Z,21.41
2018-08-22T21:25:22.697Z,21.36
2018-08-22T21:27:51.672Z,21.35
2018-08-22T21:30:20.039Z,21.31
2018-08-22T21:32:49.962Z,21.31
2018-08-22T21:35:26.171Z,21.26
2018-08-22T21:37:58.090Z,21.23
2018-08-22T21:40:26.442Z,21.21
2018-08-22T21:42:54.792Z,21.18
2018-08-22T21:45:23.202Z,21.13
2018-08-22T21:48:04.961Z,21.14
2018-08-22T21:50:33.343Z,21.08
2018-08-22T21:53:02.846Z,21.06
2018-08-22T21:55:37.341Z,21.06
2018-08-22T21:59:30.187Z,21.03
2018-08-22T22:02:04.015Z,20.98
2018-08-22T22:04:37.494Z,20.91
2018-08-22T22:07:06.796Z,20.89
2018-08-22T22:09:35.789Z,20.89
2018-08-22T22:12:04.675Z,20.85
2018-08-22T22:14:35.084Z,20.85
2018-08-22T22:17:04.193Z,20.83
2018-08-22T22:19:33.836Z,20.80
2018-08-22T22:22:03.004Z,20.77
2018-08-22T22:24:31.326Z,20.76
2018-08-22T22:27:00.067Z,20.72
2018-08-22T22:29:32.593Z,20.70
2018-08-22T22:32:00.938Z,20.67
2018-08-22T22:34:29.379Z,20.63
2018-08-22T22:36:57.727Z,20.62
2018-08-22T22:39:36.541Z,20.60
2018-08-22T22:42:12.574Z,20.58
2018-08-22T22:44:43.374Z,20.55
2018-08-22T22:47:16.897Z,20.55
2018-08-22T22:49:45.254Z,20.52
2018-08-22T22:52:24.727Z,20.49
2018-08-22T22:54:54.942Z,20.46
2018-08-22T22:57:23.729Z,20.45
2018-08-22T22:59:52.512Z,20.43
2018-08-22T23:02:23.615Z,20.40
2018-08-22T23:04:52.787Z,20.37
2018-08-22T23:07:24.836Z,20.36
2018-08-22T23:09:55.451Z,20.33
2018-08-22T23:12:40.716Z,20.30
2018-08-22T23:15:11.374Z,20.26
2018-08-22T23:17:40.144Z,20.25
2018-08-22T23:20:18.899Z,20.20
2018-08-22T23:22:47.254Z,20.17
2018-08-22T23:25:15.612Z,20.19
2018-08-22T23:27:43.939Z,20.18
2018-08-22T23:30:15.500Z,20.15
2018-08-22T23:32:44.185Z,20.13
2018-08-22T23:35:20.815Z,20.12
2018-08-22T23:38:55.362Z,20.07
2018-08-22T23:41:23.691Z,20.06
2018-08-22T23:43:52.818Z,20.04
2018-08-22T23:46:21.152Z,19.99
2018-08-22T23:48:56.649Z,19.98
2018-08-22T23:51:24.975Z,19.94
2018-08-22T23:53:57.016Z,19.94
2018-08-22T23:56:27.393Z,19.91
2018-08-22T23:58:56.319Z,19.89
